Time;durP1;ratioP1;P1;durP2;ratioP2;P2;SDS_P1;SDS_P2;PMS_P1;PMS_P2;Temp;Humidity;BMP_temperature;BMP_pressure;BME280_temperature;BME280_humidity;BME280_pressure;Samples;Min_cycle;Max_cycle;Signal;HPM_P1;HPM_P2
2023/01/14 00:01:03;;;;;;;37.97;18.88;;;4.90;99.90;;;;;;5032495;28;20031;-80
2023/01/14 00:03:28;;;;;;;;;;;4.90;99.90;;;;;;5052275;27;20048;-81
2023/01/14 00:05:56;;;;;;;36.63;19.40;;;4.90;99.90;;;;;;5148195;27;19919;-80
2023/01/14 00:08:21;;;;;;;28.88;17.40;;;4.90;99.90;;;;;;5136476;27;20023;-81
2023/01/14 00:10:47;;;;;;;38.40;18.65;;;4.80;99.90;;;;;;5155200;27;20526;-81
2023/01/14 00:13:12;;;;;;;38.10;19.25;;;4.80;99.90;;;;;;5136364;27;20559;-80
2023/01/14 00:15:38;;;;;;;30.92;17.25;;;4.70;99.90;;;;;;5136421;27;20510;-80
2023/01/14 00:18:04;;;;;;;30.17;18.33;;;4.70;99.90;;;;;;5155002;27;20033;-81
2023/01/14 00:20:30;;;;;;;29.95;16.85;;;4.60;99.90;;;;;;5136319;27;20057;-81
2023/01/14 00:22:56;;;;;;;27.17;14.73;;;4.60;99.90;;;;;;5154782;27;20436;-81
2023/01/14 00:25:22;;;;;;;30.05;17.05;;;4.60;99.90;;;;;;5136232;27;20042;-81
2023/01/14 00:27:47;;;;;;;32.53;19.27;;;4.50;99.90;;;;;;5136292;27;20503;-81
2023/01/14 00:30:13;;;;;;;29.92;16.05;;;4.50;99.90;;;;;;5154708;27;20110;-80
2023/01/14 00:32:39;;;;;;;33.05;19.05;;;4.50;99.90;;;;;;5154590;27;20072;-81
2023/01/14 00:35:05;;;;;;;35.97;18.42;;;4.50;99.90;;;;;;5154897;27;20019;-80
2023/01/14 00:37:30;;;;;;;30.27;17.85;;;4.40;99.90;;;;;;5075071;27;20026;-80
2023/01/14 00:39:56;;;;;;;31.45;18.83;;;4.40;99.90;;;;;;5032134;28;20028;-80
2023/01/14 00:42:21;;;;;;;31.42;20.20;;;4.40;99.90;;;;;;5032019;28;20444;-80
2023/01/14 00:44:47;;;;;;;29.17;17.88;;;4.40;99.90;;;;;;5032153;28;20017;-80
2023/01/14 00:47:12;;;;;;;27.33;17.15;;;4.30;99.90;;;;;;5049688;28;20017;-81
2023/01/14 00:49:38;;;;;;;33.25;18.58;;;4.30;99.90;;;;;;5031852;28;20065;-82
2023/01/14 00:52:04;;;;;;;33.22;18.70;;;4.20;99.90;;;;;;5037300;27;20389;-80
2023/01/14 00:54:31;;;;;;;26.48;17.23;;;4.20;99.90;;;;;;5053067;28;20100;-80
2023/01/14 00:56:56;;;;;;;28.42;17.95;;;4.20;99.90;;;;;;5035202;28;20050;-80
2023/01/14 00:59:23;;;;;;;28.98;16.58;;;4.20;99.90;;;;;;5052902;28;20028;-81
2023/01/14 01:01:51;;;;;;;27.45;15.27;;;4.20;99.90;;;;;;5050859;28;20056;-79
2023/01/14 01:04:17;;;;;;;27.63;17.02;;;4.20;99.90;;;;;;5034825;28;20029;-80
2023/01/14 01:06:43;;;;;;;28.35;17.13;;;4.20;99.90;;;;;;5052698;28;20021;-79
2023/01/14 01:09:09;;;;;;;25.85;14.70;;;4.20;99.90;;;;;;5034568;28;20031;-80
2023/01/14 01:11:34;;;;;;;20.55;14.38;;;4.20;99.90;;;;;;5052386;28;20460;-80
2023/01/14 01:14:00;;;;;;;23.35;16.13;;;4.20;99.90;;;;;;5034744;28;20032;-80
2023/01/14 01:16:26;;;;;;;26.90;15.70;;;4.20;99.90;;;;;;5052390;28;20029;-79
2023/01/14 01:18:54;;;;;;;27.63;17.52;;;4.10;99.90;;;;;;5052439;28;20029;-79
2023/01/14 01:21:20;;;;;;;25.42;14.98;;;4.10;99.90;;;;;;5052454;28;20386;-80
2023/01/14 01:23:47;;;;;;;31.13;17.27;;;4.10;99.90;;;;;;5034500;28;20025;-80
2023/01/14 01:26:32;;;;;;;30.13;16.48;;;4.00;99.90;;;;;;5052713;28;20036;-80
2023/01/14 01:28:58;;;;;;;23.83;15.93;;;4.00;99.90;;;;;;5034266;28;20029;-80
2023/01/14 01:31:25;;;;;;;25.10;15.65;;;4.00;99.90;;;;;;5034272;28;20064;-80
2023/01/14 01:33:51;;;;;;;25.77;16.17;;;4.00;99.90;;;;;;5052283;28;20104;-80
2023/01/14 01:36:22;;;;;;;24.58;16.00;;;4.00;99.90;;;;;;5034275;28;20057;-80
2023/01/14 01:38:49;;;;;;;25.95;16.05;;;4.00;99.90;;;;;;5052265;28;20478;-80
2023/01/14 01:41:21;;;;;;;28.15;18.77;;;3.90;99.90;;;;;;5025562;28;20029;-80
2023/01/14 01:44:27;;;;;;;26.48;16.85;;;3.90;99.90;;;;;;5014501;28;20053;-80
2023/01/14 01:46:53;;;;;;;21.50;14.35;;;3.90;99.90;;;;;;5014447;28;20030;-80
2023/01/14 01:49:24;;;;;;;32.65;16.10;;;3.90;99.90;;;;;;5014320;28;20090;-80
2023/01/14 01:51:58;;;;;;;32.78;16.15;;;3.80;99.90;;;;;;5019443;28;20033;-78
2023/01/14 01:54:28;;;;;;;29.45;16.60;;;3.80;99.90;;;;;;5121207;27;20116;-79
2023/01/14 01:56:55;;;;;;;26.13;16.50;;;3.80;99.90;;;;;;5120141;27;20020;-79
2023/01/14 01:59:25;;;;;;;36.20;18.42;;;3.70;99.90;;;;;;5014599;28;20032;-79
2023/01/14 02:01:52;;;;;;;29.88;16.05;;;3.70;99.90;;;;;;5031916;28;20026;-78
2023/01/14 02:04:18;;;;;;;28.52;16.27;;;3.70;99.90;;;;;;5031062;28;20033;-79
2023/01/14 02:06:44;;;;;;;28.30;16.60;;;3.70;99.90;;;;;;5014050;28;20036;-79
2023/01/14 02:09:10;;;;;;;27.63;15.30;;;3.70;99.90;;;;;;5014131;28;20018;-79
2023/01/14 02:12:08;;;;;;;31.88;16.17;;;3.60;99.90;;;;;;5013896;28;20030;-79
2023/01/14 02:14:55;;;;;;;28.05;16.40;;;3.60;99.90;;;;;;5013702;28;20075;-79
2023/01/14 02:17:26;;;;;;;27.85;16.58;;;3.50;99.90;;;;;;5031683;28;20026;-79
2023/01/14 02:20:18;;;;;;;27.73;16.63;;;3.50;99.90;;;;;;5099968;28;20045;-79
2023/01/14 02:23:28;;;;;;;33.22;17.25;;;3.50;99.90;;;;;;5099992;28;20033;-79
2023/01/14 02:26:00;;;;;;;31.42;17.05;;;3.40;99.90;;;;;;5013912;28;20042;-78
2023/01/14 02:28:44;;;;;;;30.55;17.50;;;3.40;99.90;;;;;;5013131;28;20034;-79
2023/01/14 02:31:16;;;;;;;33.38;18.02;;;3.30;99.90;;;;;;5013841;28;20045;-79
2023/01/14 02:34:03;;;;;;;29.65;17.52;;;3.30;99.90;;;;;;5014097;28;20017;-80
2023/01/14 02:36:37;;;;;;;32.13;17.92;;;3.30;99.90;;;;;;5031705;28;20025;-77
2023/01/14 02:39:18;;;;;;;35.60;18.65;;;3.30;99.90;;;;;;5014243;28;20049;-78
2023/01/14 02:45:09;;;;;;;31.25;17.08;;;3.30;99.90;;;;;;5028293;28;20036;-79
2023/01/14 02:47:38;;;;;;;32.58;19.25;;;3.30;99.90;;;;;;5031535;28;20382;-82
2023/01/14 02:50:06;;;;;;;35.28;18.83;;;3.30;99.90;;;;;;5013666;28;20034;-79
2023/01/14 02:52:31;;;;;;;30.65;18.42;;;3.30;99.90;;;;;;5031345;28;20104;-79
2023/01/14 02:55:00;;;;;;;32.10;18.58;;;3.30;99.90;;;;;;5013623;28;20117;-82
2023/01/14 02:57:41;;;;;;;31.58;19.35;;;3.30;99.90;;;;;;5031315;28;20029;-82
2023/01/14 03:00:38;;;;;;;31.95;18.70;;;3.30;99.90;;;;;;5031365;28;20505;-82
2023/01/14 03:03:22;;;;;;;40.40;21.10;;;3.30;99.90;;;;;;5003912;28;20052;-79
2023/01/14 03:06:09;;;;;;;36.15;19.90;;;3.30;99.90;;;;;;5031283;28;20022;-79
2023/01/14 03:08:50;;;;;;;35.20;19.45;;;3.30;99.90;;;;;;5013338;28;20523;-79
2023/01/14 03:11:16;;;;;;;36.20;20.63;;;3.20;99.90;;;;;;5013373;28;20065;-79
2023/01/14 03:13:52;;;;;;;36.13;23.35;;;3.20;99.90;;;;;;5013121;28;20026;-82
2023/01/14 03:16:24;;;;;;;33.22;20.60;;;3.20;99.90;;;;;;5013318;28;20029;-79
2023/01/14 03:19:26;;;;;;;34.88;20.98;;;3.30;99.90;;;;;;5030930;28;20100;-79
2023/01/14 03:21:54;;;;;;;34.30;20.05;;;3.30;99.90;;;;;;5006268;28;20044;-82
2023/01/14 03:24:39;;;;;;;34.20;19.88;;;3.30;99.90;;;;;;5013341;28;20441;-82
2023/01/14 03:27:18;;;;;;;35.67;20.33;;;3.30;99.90;;;;;;5013215;28;20105;-82
2023/01/14 03:29:47;;;;;;;34.28;21.13;;;3.30;99.90;;;;;;5013141;28;20052;-81
2023/01/14 03:32:22;;;;;;;48.97;27.38;;;3.30;99.90;;;;;;5030938;28;20086;-79
2023/01/14 03:34:56;;;;;;;37.33;19.52;;;3.30;99.90;;;;;;5013174;28;20479;-81
2023/01/14 03:37:23;;;;;;;46.08;23.73;;;3.30;99.90;;;;;;5013134;28;20028;-81
2023/01/14 03:39:51;;;;;;;32.65;18.50;;;3.30;99.90;;;;;;5030846;28;20014;-81
2023/01/14 03:42:21;;;;;;;42.70;23.38;;;3.30;99.90;;;;;;5013040;28;20074;-75
2023/01/14 03:45:27;;;;;;;40.35;21.63;;;3.30;99.90;;;;;;5031126;28;20526;-80
2023/01/14 03:47:53;;;;;;;41.85;20.70;;;3.40;99.90;;;;;;5012987;28;20101;-80
2023/01/14 03:50:23;;;;;;;43.33;23.70;;;3.40;99.90;;;;;;5012451;28;20120;-76
2023/01/14 03:53:26;;;;;;;35.90;20.58;;;3.40;99.90;;;;;;5012919;28;20028;-75
2023/01/14 03:56:19;;;;;;;35.72;22.25;;;3.40;99.90;;;;;;5012767;28;20025;-79
2023/01/14 03:59:25;;;;;;;33.05;20.58;;;3.40;99.90;;;;;;5012769;28;20125;-80
2023/01/14 04:01:54;;;;;;;36.55;19.65;;;3.40;99.90;;;;;;4980567;28;20034;-79
2023/01/14 04:04:22;;;;;;;32.17;19.02;;;3.40;99.90;;;;;;5012723;28;20092;-78
2023/01/14 04:06:48;;;;;;;34.63;21.73;;;3.40;99.90;;;;;;5012728;28;20091;-80
2023/01/14 04:09:13;;;;;;;36.55;21.92;;;3.40;99.90;;;;;;5012604;28;20486;-80
2023/01/14 04:11:40;;;;;;;34.97;20.35;;;3.40;99.90;;;;;;5012375;28;20036;-78
2023/01/14 04:16:50;;;;;;;35.40;20.02;;;3.50;99.90;;;;;;5030424;28;20047;-77
2023/01/14 04:19:16;;;;;;;31.05;19.60;;;3.50;99.90;;;;;;5030176;28;20100;-79
2023/01/14 04:21:41;;;;;;;30.63;19.38;;;3.50;99.90;;;;;;5030170;28;20060;-79
2023/01/14 04:24:07;;;;;;;31.25;19.05;;;3.50;99.90;;;;;;5012453;28;20029;-79
2023/01/14 04:26:33;;;;;;;30.23;17.23;;;3.50;99.90;;;;;;5031581;28;20025;-81
2023/01/14 04:29:02;;;;;;;28.27;16.90;;;3.60;99.90;;;;;;5016297;28;20025;-79
2023/01/14 04:31:27;;;;;;;27.55;17.58;;;3.60;99.90;;;;;;5033460;28;20085;-81
2023/01/14 04:33:53;;;;;;;33.83;17.65;;;3.50;99.90;;;;;;5015970;28;20057;-81
2023/01/14 04:36:19;;;;;;;28.42;15.57;;;3.60;99.90;;;;;;5033415;28;20025;-78
2023/01/14 04:38:44;;;;;;;24.73;14.65;;;3.60;99.90;;;;;;5015776;28;20025;-78
2023/01/14 04:42:26;;;;;;;25.10;14.43;;;3.60;99.90;;;;;;5015852;28;20049;-78
2023/01/14 04:43:57;;;;;;;24.42;13.95;;;3.60;99.90;;;;;;5033774;28;20048;-77
2023/01/14 04:46:22;;;;;;;23.25;13.07;;;3.60;99.90;;;;;;5015751;28;20025;-77
2023/01/14 04:48:51;;;;;;;21.60;13.95;;;3.60;99.90;;;;;;5033403;28;20030;-78
2023/01/14 04:51:16;;;;;;;28.13;15.13;;;3.50;99.90;;;;;;5015730;28;20053;-79
2023/01/14 04:53:42;;;;;;;23.88;15.18;;;3.50;99.90;;;;;;5015657;28;20037;-78
2023/01/14 04:56:08;;;;;;;22.13;12.88;;;3.50;99.90;;;;;;5033298;28;20024;-78
2023/01/14 04:58:33;;;;;;;22.83;13.98;;;3.50;99.90;;;;;;5015282;28;20406;-77
2023/01/14 05:01:00;;;;;;;25.25;15.80;;;3.50;99.90;;;;;;5015559;28;20174;-79
2023/01/14 05:03:26;;;;;;;27.75;16.85;;;3.50;99.90;;;;;;5033255;28;20049;-78
2023/01/14 05:05:51;;;;;;;21.58;14.10;;;3.50;99.90;;;;;;5015256;28;20109;-78
2023/01/14 05:08:18;;;;;;;21.90;13.18;;;3.50;99.90;;;;;;5015284;28;20074;-78
2023/01/14 05:10:44;;;;;;;22.45;12.35;;;3.50;99.90;;;;;;5015084;28;20042;-79
2023/01/14 05:13:11;;;;;;;20.40;12.88;;;3.50;99.90;;;;;;5015343;28;20021;-79
2023/01/14 05:15:39;;;;;;;19.15;11.63;;;3.50;99.90;;;;;;5015309;28;20022;-79
2023/01/14 05:18:06;;;;;;;17.23;12.52;;;3.50;99.90;;;;;;5015269;28;20041;-81
2023/01/14 05:20:32;;;;;;;23.33;13.20;;;3.50;99.90;;;;;;5015123;28;20100;-79
2023/01/14 05:23:03;;;;;;;22.05;13.52;;;3.60;99.90;;;;;;5015274;28;20049;-78
2023/01/14 05:25:31;;;;;;;17.75;12.07;;;3.60;99.90;;;;;;5015417;28;20068;-80
2023/01/14 05:28:01;;;;;;;22.48;12.45;;;3.60;99.90;;;;;;5015147;28;20022;-80
2023/01/14 05:30:27;;;;;;;19.25;11.77;;;3.60;99.90;;;;;;5014744;28;20097;-84
2023/01/14 05:33:02;;;;;;;23.08;12.73;;;3.50;99.90;;;;;;5015233;28;20106;-82
2023/01/14 05:35:28;;;;;;;20.77;11.90;;;3.50;99.90;;;;;;5032327;28;20056;-83
2023/01/14 05:37:57;;;;;;;23.45;14.40;;;3.50;99.90;;;;;;5032618;28;20025;-83
2023/01/14 05:40:23;;;;;;;22.20;13.00;;;3.50;99.90;;;;;;5032454;28;20049;-83
2023/01/14 05:45:48;;;;;;;21.80;12.73;;;3.50;99.90;;;;;;5032874;28;20032;-77
2023/01/14 05:48:18;;;;;;;23.42;13.05;;;3.50;99.90;;;;;;5032355;28;20494;-78
2023/01/14 05:50:44;;;;;;;23.58;13.40;;;3.50;99.90;;;;;;5032196;28;20045;-78
2023/01/14 05:53:10;;;;;;;22.40;13.50;;;3.50;99.90;;;;;;5022473;28;20395;-79
2023/01/14 05:55:36;;;;;;;23.38;14.52;;;3.60;99.90;;;;;;5014267;28;20113;-78
2023/01/14 05:58:04;;;;;;;21.90;13.38;;;3.60;99.90;;;;;;5014298;28;20455;-81
2023/01/14 06:08:26;;;;;;;26.75;15.07;;;3.60;99.90;;;;;;5031501;28;20521;-81
2023/01/14 06:10:52;;;;;;;19.20;13.18;;;3.50;99.90;;;;;;5058850;27;20041;-82
2023/01/14 06:13:18;;;;;;;26.33;14.90;;;3.50;99.90;;;;;;5034271;27;20021;-83
2023/01/14 06:15:46;;;;;;;21.02;12.98;;;3.50;99.90;;;;;;5033942;28;20284;-82
2023/01/14 06:18:20;;;;;;;28.13;14.57;;;3.50;99.90;;;;;;5033857;28;20028;-82
2023/01/14 06:20:50;;;;;;;24.70;15.05;;;3.50;99.90;;;;;;5101950;27;20027;-82
2023/01/14 06:23:17;;;;;;;28.10;16.25;;;3.50;99.90;;;;;;5137548;27;20049;-82
2023/01/14 06:25:45;;;;;;;23.02;14.82;;;3.50;99.90;;;;;;5061344;27;20021;-77
2023/01/14 06:28:11;;;;;;;27.90;15.57;;;3.50;99.90;;;;;;5051623;28;20025;-81
2023/01/14 06:30:37;;;;;;;24.40;15.50;;;3.50;99.90;;;;;;5033498;28;20032;-82
2023/01/14 06:33:03;;;;;;;20.92;12.77;;;3.50;99.90;;;;;;5033739;28;20017;-81
2023/01/14 06:35:28;;;;;;;25.02;13.63;;;3.50;99.90;;;;;;5051256;27;20063;-83
2023/01/14 06:37:54;;;;;;;22.90;14.07;;;3.40;99.90;;;;;;5088354;27;20029;-81
2023/01/14 06:40:19;;;;;;;25.73;13.57;;;3.40;99.90;;;;;;5077741;27;20383;-81
2023/01/14 06:42:45;;;;;;;21.38;13.40;;;3.40;99.90;;;;;;5084028;27;20038;-81
2023/01/14 06:45:12;;;;;;;21.70;13.45;;;3.40;99.90;;;;;;5085114;27;20386;-81
2023/01/14 06:47:38;;;;;;;30.38;16.15;;;3.40;99.90;;;;;;5078627;27;20013;-79
2023/01/14 06:50:05;;;;;;;25.73;14.15;;;3.40;99.90;;;;;;5117097;27;20039;-80
2023/01/14 06:52:31;;;;;;;27.42;15.80;;;3.40;99.90;;;;;;5090522;27;20038;-80
2023/01/14 06:54:58;;;;;;;25.23;15.57;;;3.40;99.90;;;;;;5078720;27;20010;-82
2023/01/14 06:57:24;;;;;;;24.85;14.98;;;3.50;99.90;;;;;;5086963;27;20499;-82
2023/01/14 06:59:50;;;;;;;23.27;13.15;;;3.40;99.90;;;;;;5085028;27;20017;-80
2023/01/14 07:02:19;;;;;;;24.20;13.27;;;3.40;99.90;;;;;;5078673;27;20044;-81
2023/01/14 07:04:45;;;;;;;24.02;14.40;;;3.40;99.90;;;;;;5086171;27;20049;-82
2023/01/14 07:07:10;;;;;;;22.02;13.73;;;3.40;99.90;;;;;;5103193;27;20053;-82
2023/01/14 07:09:36;;;;;;;25.80;14.15;;;3.50;99.90;;;;;;5079124;27;20027;-80
2023/01/14 07:12:02;;;;;;;23.55;14.20;;;3.50;99.90;;;;;;5078621;27;20009;-77
2023/01/14 07:14:28;;;;;;;24.95;14.38;;;3.50;99.90;;;;;;5102327;27;20487;-80
2023/01/14 07:16:54;;;;;;;26.83;15.02;;;3.50;99.90;;;;;;5087250;27;20085;-82
2023/01/14 07:19:20;;;;;;;29.23;15.60;;;3.50;99.90;;;;;;5078000;27;20109;-79
2023/01/14 07:21:45;;;;;;;23.73;14.65;;;3.50;99.90;;;;;;5091612;27;20395;-79
2023/01/14 07:24:12;;;;;;;20.70;14.18;;;3.50;99.90;;;;;;5105615;27;20041;-82
2023/01/14 07:26:37;;;;;;;24.00;14.35;;;3.60;99.90;;;;;;5075262;27;20026;-83
2023/01/14 07:29:03;;;;;;;26.58;14.25;;;3.60;99.90;;;;;;5104024;27;20021;-81
2023/01/14 07:31:29;;;;;;;50.67;24.92;;;3.60;99.90;;;;;;5077398;27;20079;-83
2023/01/14 07:33:54;;;;;;;50.55;25.58;;;3.60;99.90;;;;;;5058943;27;20554;-82
2023/01/14 07:36:20;;;;;;;33.08;18.73;;;3.60;99.90;;;;;;5051023;27;20411;-81
2023/01/14 07:38:45;;;;;;;28.67;16.35;;;3.60;99.90;;;;;;5088151;27;20093;-81
2023/01/14 07:41:18;;;;;;;27.15;15.27;;;3.60;99.90;;;;;;5099263;27;20025;-81
2023/01/14 07:43:49;;;;;;;52.72;26.35;;;3.60;99.90;;;;;;5068052;27;20021;-82
2023/01/14 07:46:16;;;;;;;52.08;26.85;;;3.60;99.90;;;;;;5072945;27;20045;-80
2023/01/14 07:48:44;;;;;;;33.55;18.60;;;3.60;99.90;;;;;;5088328;27;20027;-78
2023/01/14 07:51:11;;;;;;;34.67;20.55;;;3.70;99.90;;;;;;5097973;27;20029;-80
2023/01/14 07:53:37;;;;;;;39.42;22.00;;;3.70;99.90;;;;;;5097263;27;20386;-81
2023/01/14 07:56:05;;;;;;;27.73;14.50;;;3.70;99.90;;;;;;5094797;27;20086;-78
2023/01/14 07:58:31;;;;;;;21.85;14.32;;;3.80;99.90;;;;;;5047079;28;20025;-78
2023/01/14 08:00:57;;;;;;;30.20;15.70;;;3.80;99.90;;;;;;5048959;28;20028;-81
2023/01/14 08:03:24;;;;;;;26.02;15.85;;;3.70;99.90;;;;;;5041755;27;20021;-79
2023/01/14 08:05:50;;;;;;;26.48;14.70;;;3.80;99.90;;;;;;5154576;27;20079;-81
2023/01/14 08:08:16;;;;;;;30.95;15.35;;;3.80;99.90;;;;;;5136089;27;20029;-80
2023/01/14 08:10:43;;;;;;;26.15;14.45;;;3.80;99.90;;;;;;5139265;27;20033;-79
2023/01/14 08:13:12;;;;;;;26.55;15.60;;;3.80;99.90;;;;;;5097146;27;20023;-80
2023/01/14 08:15:38;;;;;;;25.63;15.18;;;3.80;99.90;;;;;;5033159;27;20078;-78
2023/01/14 08:18:03;;;;;;;37.38;19.60;;;3.80;99.90;;;;;;5069924;27;20033;-79
2023/01/14 08:20:29;;;;;;;25.70;15.55;;;3.80;99.90;;;;;;5031873;28;20017;-79
2023/01/14 08:22:59;;;;;;;91.65;39.05;;;3.90;99.90;;;;;;5032125;28;20478;-75
2023/01/14 08:25:26;;;;;;;42.47;21.15;;;3.90;99.90;;;;;;5046367;28;20423;-79
2023/01/14 08:27:51;;;;;;;28.63;17.20;;;3.90;99.90;;;;;;5049379;28;20549;-77
2023/01/14 08:30:17;;;;;;;23.70;14.20;;;4.00;99.90;;;;;;5049828;27;20119;-79
2023/01/14 08:32:43;;;;;;;21.83;13.65;;;3.90;99.90;;;;;;5039118;27;20049;-78
2023/01/14 08:35:09;;;;;;;22.42;14.45;;;3.90;99.90;;;;;;5038149;28;20029;-79
2023/01/14 08:37:35;;;;;;;22.70;13.75;;;4.00;99.90;;;;;;5031618;28;20029;-79
2023/01/14 08:40:00;;;;;;;24.88;13.45;;;4.00;99.90;;;;;;5086544;27;20023;-79
2023/01/14 08:42:26;;;;;;;24.60;13.75;;;4.00;99.90;;;;;;5120114;27;20019;-79
2023/01/14 08:44:52;;;;;;;24.48;13.48;;;4.10;99.90;;;;;;5135704;27;20030;-79
2023/01/14 08:47:18;;;;;;;43.38;21.15;;;4.10;99.90;;;;;;5068989;27;20022;-81
2023/01/14 08:49:43;;;;;;;32.70;17.08;;;4.20;99.90;;;;;;5079377;27;20116;-81
2023/01/14 08:52:09;;;;;;;24.55;13.90;;;4.20;99.90;;;;;;5077930;27;20029;-81
2023/01/14 08:54:35;;;;;;;23.15;13.73;;;4.20;99.90;;;;;;5048839;28;20073;-80
2023/01/14 08:57:00;;;;;;;21.23;12.73;;;4.30;99.90;;;;;;5030984;28;20036;-81
2023/01/14 08:59:26;;;;;;;22.17;13.95;;;4.30;99.90;;;;;;5049108;28;20070;-81
2023/01/14 09:01:52;;;;;;;21.50;14.02;;;4.30;99.90;;;;;;5031145;28;20029;-81
2023/01/14 09:04:18;;;;;;;24.95;14.15;;;4.40;99.90;;;;;;5031347;28;20112;-80
2023/01/14 09:17:58;;;;;;;29.25;15.52;;;4.60;99.90;;;;;;5109184;27;20041;-81
2023/01/14 09:20:32;;;;;;;23.73;13.85;;;4.70;99.90;;;;;;5080420;27;20489;-81
2023/01/14 09:22:59;;;;;;;25.50;14.10;;;4.70;99.90;;;;;;5098349;27;20379;-78
2023/01/14 09:25:24;;;;;;;26.08;14.18;;;4.70;99.90;;;;;;5139251;27;20044;-80
2023/01/14 09:27:50;;;;;;;22.10;13.73;;;4.70;99.90;;;;;;5072908;27;20025;-78
2023/01/14 09:30:16;;;;;;;20.63;13.07;;;4.70;99.90;;;;;;5052207;28;20078;-79
2023/01/14 09:32:41;;;;;;;20.80;13.15;;;4.70;99.90;;;;;;5052265;27;20124;-80
2023/01/14 09:35:07;;;;;;;20.75;12.02;;;4.80;99.90;;;;;;5052209;28;20021;-80
2023/01/14 09:37:33;;;;;;;20.90;13.48;;;4.80;99.90;;;;;;5121576;27;20024;-79
2023/01/14 09:39:59;;;;;;;21.33;14.13;;;4.90;99.90;;;;;;5121216;27;20025;-78
2023/01/14 09:42:31;;;;;;;25.10;14.85;;;4.90;99.90;;;;;;5106334;27;20133;-78
2023/01/14 09:45:12;;;;;;;23.58;13.95;;;5.00;99.90;;;;;;5138754;27;20113;-78
2023/01/14 09:47:38;;;;;;;18.70;12.25;;;5.00;99.90;;;;;;5138571;27;20023;-78
2023/01/14 09:50:07;;;;;;;19.70;12.32;;;5.10;99.90;;;;;;5138573;27;20449;-80
2023/01/14 09:53:01;;;;;;;23.85;13.15;;;5.10;99.90;;;;;;5157170;27;20027;-79
2023/01/14 09:56:04;;;;;;;21.85;14.40;;;5.20;99.90;;;;;;5138626;27;20383;-80
2023/01/14 09:58:50;;;;;;;26.75;14.45;;;5.30;99.90;;;;;;5138736;27;20094;-80
2023/01/14 10:01:36;;;;;;;17.52;11.15;;;5.40;99.90;;;;;;5138772;27;20117;-78
2023/01/14 10:04:25;;;;;;;23.02;12.85;;;5.50;99.90;;;;;;5138522;27;20075;-79
2023/01/14 10:06:55;;;;;;;18.77;11.70;;;5.50;99.90;;;;;;5074833;27;20077;-80
2023/01/14 10:09:40;;;;;;;16.33;10.45;;;5.60;99.90;;;;;;5100571;27;20116;-80
2023/01/14 10:12:11;;;;;;;18.17;10.68;;;5.50;99.90;;;;;;5120585;27;20037;-80
2023/01/14 10:15:18;;;;;;;20.63;12.60;;;5.60;99.90;;;;;;5066981;27;20029;-80
2023/01/14 10:17:50;;;;;;;16.75;11.52;;;5.70;99.90;;;;;;5015503;27;20057;-78
2023/01/14 10:20:22;;;;;;;18.33;11.50;;;5.80;99.90;;;;;;5031901;28;20463;-79
2023/01/14 10:22:57;;;;;;;19.40;11.23;;;5.80;99.90;;;;;;5014303;28;20032;-79
2023/01/14 10:25:23;;;;;;;18.30;11.20;;;5.90;99.90;;;;;;5013042;28;20025;-77
2023/01/14 10:27:53;;;;;;;15.02;10.55;;;5.90;99.90;;;;;;5013934;28;20482;-77
2023/01/14 10:30:22;;;;;;;15.93;9.70;;;5.90;99.90;;;;;;5034207;28;20033;-77
2023/01/14 10:32:51;;;;;;;19.98;10.25;;;5.90;99.90;;;;;;5071263;27;20041;-79
2023/01/14 10:35:37;;;;;;;17.80;10.18;;;5.90;99.90;;;;;;5030825;28;20066;-80
2023/01/14 10:38:04;;;;;;;17.13;11.32;;;6.00;99.90;;;;;;5031426;28;20461;-79
2023/01/14 10:40:30;;;;;;;21.67;11.60;;;6.00;99.90;;;;;;5030443;28;20481;-78
2023/01/14 10:42:58;;;;;;;15.25;10.77;;;6.00;99.90;;;;;;5048215;28;20117;-79
2023/01/14 10:45:24;;;;;;;15.15;11.18;;;6.00;99.90;;;;;;5032141;28;20017;-79
2023/01/14 10:47:55;;;;;;;19.15;12.38;;;6.10;99.90;;;;;;5050524;28;20033;-79
2023/01/14 10:50:24;;;;;;;14.48;10.45;;;6.20;99.90;;;;;;5050665;28;20075;-79
2023/01/14 10:52:52;;;;;;;18.55;9.57;;;6.20;99.90;;;;;;5031767;28;20058;-79
2023/01/14 10:55:22;;;;;;;14.98;9.20;;;6.30;99.90;;;;;;5032695;28;20025;-80
2023/01/14 10:58:01;;;;;;;15.63;8.52;;;6.40;99.90;;;;;;5048978;28;20021;-80
2023/01/14 11:00:36;;;;;;;17.77;9.02;;;6.50;99.90;;;;;;5047405;28;20044;-79
2023/01/14 11:03:07;;;;;;;21.00;11.52;;;6.50;99.90;;;;;;5029336;28;20526;-79
2023/01/14 11:05:39;;;;;;;14.70;9.38;;;6.60;99.90;;;;;;5047317;28;20467;-79
2023/01/14 11:08:14;;;;;;;12.18;7.18;;;6.70;99.90;;;;;;5047753;28;20032;-79
2023/01/14 11:10:40;;;;;;;16.08;7.78;;;6.70;99.90;;;;;;5049187;28;20108;-80
2023/01/14 11:13:24;;;;;;;15.82;8.65;;;6.70;99.90;;;;;;5032977;28;20050;-79
2023/01/14 11:15:50;;;;;;;17.67;7.68;;;6.70;99.90;;;;;;5033061;28;20530;-80
2023/01/14 11:18:18;;;;;;;18.17;8.68;;;6.60;99.90;;;;;;5032913;28;20053;-79
2023/01/14 11:21:20;;;;;;;18.15;8.23;;;6.60;99.90;;;;;;5032960;28;20058;-79
2023/01/14 11:23:57;;;;;;;20.25;9.65;;;6.50;99.90;;;;;;5033135;28;20093;-78
2023/01/14 11:26:31;;;;;;;20.77;9.10;;;6.60;99.90;;;;;;5050757;28;20021;-79
2023/01/14 11:29:21;;;;;;;21.30;9.15;;;6.50;99.90;;;;;;5032800;28;20351;-78
2023/01/14 11:31:48;;;;;;;17.00;8.77;;;6.50;99.90;;;;;;5029159;28;20493;-80
2023/01/14 11:34:33;;;;;;;18.48;7.78;;;6.50;99.90;;;;;;5029590;28;20014;-80
2023/01/14 11:37:17;;;;;;;15.30;7.55;;;6.50;99.90;;;;;;5030730;28;20025;-79
2023/01/14 11:39:58;;;;;;;12.32;6.60;;;6.50;99.90;;;;;;5030778;28;20494;-80
2023/01/14 11:42:26;;;;;;;18.58;8.93;;;6.50;99.90;;;;;;5030720;28;20432;-79
2023/01/14 11:45:10;;;;;;;18.60;8.88;;;6.50;99.90;;;;;;5029474;28;20503;-78
2023/01/14 11:47:48;;;;;;;23.20;10.38;;;6.60;99.90;;;;;;5029371;28;20112;-78
2023/01/14 11:50:19;;;;;;;108.40;47.63;;;6.70;99.90;;;;;;5030516;28;20136;-79
2023/01/14 11:53:16;;;;;;;23.73;10.38;;;6.80;99.90;;;;;;5029214;28;20390;-78
2023/01/14 11:55:44;;;;;;;16.98;7.03;;;6.90;99.90;;;;;;5029159;28;20032;-80
2023/01/14 11:58:19;;;;;;;14.45;9.07;;;6.90;99.90;;;;;;5030395;28;20022;-79
2023/01/14 12:00:47;;;;;;;15.00;7.18;;;7.00;99.90;;;;;;5030358;28;20014;-78
2023/01/14 12:03:32;;;;;;;15.63;7.10;;;7.00;99.90;;;;;;5029093;28;20033;-79
2023/01/14 12:05:58;;;;;;;11.50;6.25;;;7.00;99.90;;;;;;5030461;28;20025;-79
2023/01/14 12:08:29;;;;;;;17.38;7.40;;;7.00;99.90;;;;;;5028733;28;20615;-79
2023/01/14 12:11:00;;;;;;;10.13;6.30;;;7.00;99.90;;;;;;5030312;28;20034;-78
2023/01/14 12:16:52;;;;;;;10.57;5.82;;;7.10;99.90;;;;;;5030319;28;20282;-79
2023/01/14 12:19:30;;;;;;;12.52;5.45;;;7.10;99.90;;;;;;5029102;28;20502;-78
2023/01/14 12:22:00;;;;;;;10.90;6.28;;;7.10;99.90;;;;;;5030250;28;20030;-79
2023/01/14 12:24:56;;;;;;;7.45;4.95;;;7.10;99.90;;;;;;5030127;28;20403;-78
2023/01/14 12:27:43;;;;;;;16.17;6.80;;;7.10;99.90;;;;;;5030111;28;20053;-78
2023/01/14 12:30:25;;;;;;;14.27;6.65;;;7.10;99.90;;;;;;5028652;28;20038;-79
2023/01/14 12:33:09;;;;;;;8.20;5.07;;;7.10;99.90;;;;;;5028795;28;20044;-79
2023/01/14 12:35:48;;;;;;;11.90;5.57;;;7.20;99.90;;;;;;5030071;28;20033;-78
2023/01/14 12:46:41;;;;;;;16.60;6.72;;;7.50;99.90;;;;;;5030422;28;20125;-78
2023/01/14 12:49:07;;;;;;;10.32;5.53;;;7.60;99.90;;;;;;5031936;28;20057;-80
2023/01/14 12:51:37;;;;;;;9.77;5.82;;;7.60;99.90;;;;;;5033148;28;20080;-79
2023/01/14 12:54:06;;;;;;;11.45;5.30;;;7.70;99.90;;;;;;5032170;28;20074;-78
2023/01/14 12:56:35;;;;;;;12.57;6.60;;;7.70;99.90;;;;;;5033062;28;20436;-79
2023/01/14 12:59:08;;;;;;;12.15;5.40;;;7.70;99.80;;;;;;5031048;28;20025;-79
2023/01/14 13:01:43;;;;;;;7.28;4.13;;;7.60;96.00;;;;;;5031502;28;20018;-79
2023/01/14 13:04:21;;;;;;;14.73;6.07;;;7.60;96.50;;;;;;5031686;28;20014;-79
2023/01/14 13:06:53;;;;;;;15.68;5.55;;;7.50;96.40;;;;;;5032987;28;20025;-76
2023/01/14 13:09:24;;;;;;;7.40;4.53;;;7.40;96.10;;;;;;5020306;28;20034;-79
2023/01/14 13:11:54;;;;;;;11.50;5.47;;;7.40;98.10;;;;;;5031653;28;20057;-80
2023/01/14 13:14:39;;;;;;;8.52;4.15;;;7.40;97.50;;;;;;5023215;28;20056;-82
2023/01/14 13:17:07;;;;;;;9.57;4.38;;;7.40;96.80;;;;;;5011981;28;20030;-80
2023/01/14 13:19:54;;;;;;;10.50;5.20;;;7.40;96.40;;;;;;5011083;28;20551;-80
2023/01/14 13:22:45;;;;;;;8.40;4.30;;;7.40;96.70;;;;;;5011941;28;20041;-80
2023/01/14 13:25:18;;;;;;;10.82;4.30;;;7.40;97.20;;;;;;5010333;28;20037;-81
2023/01/14 13:27:44;;;;;;;8.90;4.30;;;7.40;95.60;;;;;;5010893;28;20034;-80
2023/01/14 13:30:19;;;;;;;6.30;4.70;;;7.40;98.20;;;;;;5010903;28;20110;-79
2023/01/14 13:32:59;;;;;;;8.82;4.65;;;7.40;98.20;;;;;;5046947;28;20077;-79
2023/01/14 13:35:27;;;;;;;8.93;5.03;;;7.40;97.90;;;;;;5036522;28;20034;-80
2023/01/14 13:37:55;;;;;;;9.05;5.97;;;7.30;98.50;;;;;;5038258;27;20050;-80